Time;durP1;ratioP1;P1;durP2;ratioP2;P2;SDS_P1;SDS_P2;PMS_P1;PMS_P2;Temp;Humidity;BMP_temperature;BMP_pressure;BME280_temperature;BME280_humidity;BME280_pressure;Samples;Min_cycle;Max_cycle;Signal;HPM_P1;HPM_P2
2019/04/25 00:01:35;;;;;;;0.7;0.6;;;;;;;24.9;32.77832;994.3667;;;;
2019/04/25 00:04:02;;;;;;;1.1;0.8;;;;;;;24.89;32.76563;994.3508;;;;
2019/04/25 00:06:33;;;;;;;0.9;0.7;;;;;;;24.89;32.75488;994.3411;;;;
2019/04/25 00:09:03;;;;;;;0.9;0.7;;;;;;;24.88;32.76563;994.384;;;;
2019/04/25 00:11:33;;;;;;;0.8;0.7;;;;;;;24.88;32.76465;994.4075;;;;
2019/04/25 00:14:10;;;;;;;0.9;0.6;;;;;;;24.88;32.76465;994.435;;;;
2019/04/25 00:16:38;;;;;;;0.9;0.7;;;;;;;24.88;32.74121;994.376;;;;
2019/04/25 00:19:06;;;;;;;0.8;0.8;;;;;;;24.87;32.72852;994.2681;;;;
2019/04/25 00:21:52;;;;;;;0.9;0.6;;;;;;;24.86;32.75195;994.1699;;;;
2019/04/25 00:24:33;;;;;;;0.7;0.6;;;;;;;24.84;32.75098;994.1869;;;;
2019/04/25 00:27:05;;;;;;;1.3;0.8;;;;;;;24.85;32.72754;994.1987;;;;
2019/04/25 00:29:38;;;;;;;0.6;0.6;;;;;;;24.85;32.72754;994.195;;;;
2019/04/25 00:32:06;;;;;;;1;0.8;;;;;;;24.85;32.71582;994.2263;;;;
2019/04/25 00:34:42;;;;;;;0.7;0.6;;;;;;;24.83;32.73828;994.3081;;;;
2019/04/25 00:37:13;;;;;;;0.6;0.6;;;;;;;24.84;32.71484;994.2436;;;;
2019/04/25 00:39:40;;;;;;;0.8;0.6;;;;;;;24.83;32.70215;994.3453;;;;
2019/04/25 00:42:08;;;;;;;1.3;0.7;;;;;;;24.83;32.69141;994.3219;;;;
2019/04/25 00:44:49;;;;;;;1.1;0.7;;;;;;;24.83;32.70215;994.355;;;;
2019/04/25 00:47:16;;;;;;;0.9;0.7;;;;;;;24.83;32.69043;994.3512;;;;
2019/04/25 00:49:54;;;;;;;0.9;0.8;;;;;;;24.83;32.67773;994.3883;;;;
2019/04/25 00:52:32;;;;;;;0.7;0.6;;;;;;;24.81;32.68945;994.4231;;;;
2019/04/25 00:55:00;;;;;;;1.1;0.6;;;;;;;24.82;32.67773;994.5273;;;;
2019/04/25 00:57:36;;;;;;;1.3;0.7;;;;;;;24.81;32.67676;994.4699;;;;
2019/04/25 01:00:31;;;;;;;0.8;0.7;;;;;;;24.8;32.67676;994.4799;;;;
2019/04/25 01:02:43;;;;;;;0.9;0.7;;;;;;;24.79;32.67578;994.3953;;;;
2019/04/25 01:05:09;;;;;;;0.7;0.6;;;;;;;24.8;32.66406;994.4128;;;;
2019/04/25 01:07:43;;;;;;;0.8;0.6;;;;;;;24.79;32.65234;994.3226;;;;
2019/04/25 01:10:13;;;;;;;0.8;0.6;;;;;;;24.79;32.65234;994.2678;;;;
2019/04/25 01:12:38;;;;;;;0.7;0.7;;;;;;;24.79;32.65234;994.2226;;;;
2019/04/25 01:15:12;;;;;;;0.7;0.6;;;;;;;24.78;32.63965;994.3105;;;;
2019/04/25 01:17:38;;;;;;;0.7;0.6;;;;;;;24.78;32.62793;994.3067;;;;
2019/04/25 01:20:13;;;;;;;0.9;0.6;;;;;;;24.77;32.65039;994.2456;;;;
2019/04/25 01:22:43;;;;;;;0.5;0.5;;;;;;;24.77;32.62695;994.2141;;;;
2019/04/25 01:25:19;;;;;;;0.7;0.6;;;;;;;24.77;32.61523;994.2141;;;;
2019/04/25 01:28:01;;;;;;;0.8;0.7;;;;;;;24.77;32.61523;994.1592;;;;
2019/04/25 01:30:28;;;;;;;0.8;0.7;;;;;;;24.76;32.62598;994.2159;;;;
2019/04/25 01:32:58;;;;;;;0.9;0.7;;;;;;;24.76;32.60254;994.2297;;;;
2019/04/25 01:35:43;;;;;;;0.9;0.6;;;;;;;24.76;32.60254;994.1981;;;;
2019/04/25 01:40:46;;;;;;;0.9;0.6;;;;;;;24.75;32.60156;994.2645;;;;
2019/04/25 01:43:46;;;;;;;0.6;0.6;;;;;;;24.73;32.60059;994.1581;;;;
2019/04/25 01:45:50;;;;;;;0.7;0.6;;;;;;;24.73;32.58887;994.1541;;;;
2019/04/25 01:48:21;;;;;;;1;0.7;;;;;;;24.73;32.57715;994.0306;;;;
2019/04/25 01:50:54;;;;;;;2.3;0.6;;;;;;;24.72;32.58789;994.0461;;;;
2019/04/25 01:53:26;;;;;;;1;0.7;;;;;;;24.71;32.58691;994.0165;;;;
2019/04/25 01:55:54;;;;;;;0.6;0.6;;;;;;;24.71;32.5752;994.1029;;;;
2019/04/25 01:58:22;;;;;;;0.8;0.6;;;;;;;24.71;32.5752;994.1812;;;;
2019/04/25 02:00:49;;;;;;;0.6;0.6;;;;;;;24.7;32.5752;994.1789;;;;
2019/04/25 02:03:17;;;;;;;0.8;0.6;;;;;;;24.69;32.57422;994.2491;;;;
2019/04/25 02:05:51;;;;;;;1;0.7;;;;;;;24.68;32.58496;994.3254;;;;
2019/04/25 02:08:24;;;;;;;0.7;0.6;;;;;;;24.68;32.57324;994.3995;;;;
2019/04/25 02:11:10;;;;;;;0.7;0.5;;;;;;;24.68;32.57324;994.4311;;;;
2019/04/25 02:13:26;;;;;;;0.7;0.6;;;;;;;24.67;32.56055;994.4367;;;;
2019/04/25 02:16:06;;;;;;;0.9;0.7;;;;;;;24.67;32.56055;994.3818;;;;
2019/04/25 02:18:41;;;;;;;1;0.7;;;;;;;24.66;32.58301;994.3031;;;;
2019/04/25 02:21:15;;;;;;;0.8;0.6;;;;;;;24.65;32.58301;994.3596;;;;
2019/04/25 02:23:50;;;;;;;0.7;0.5;;;;;;;24.65;32.57129;994.4048;;;;
2019/04/25 02:26:18;;;;;;;0.6;0.6;;;;;;;24.66;32.58301;994.4774;;;;
2019/04/25 02:28:50;;;;;;;0.7;0.6;;;;;;;24.64;32.57031;994.5809;;;;
2019/04/25 02:31:17;;;;;;;0.7;0.6;;;;;;;24.65;32.54688;994.5712;;;;
2019/04/25 02:33:47;;;;;;;0.6;0.5;;;;;;;24.65;32.54688;994.5988;;;;
2019/04/25 02:36:19;;;;;;;0.7;0.5;;;;;;;24.64;32.5459;994.6514;;;;
2019/04/25 02:38:49;;;;;;;1.1;0.6;;;;;;;24.63;32.5459;994.8256;;;;
2019/04/25 02:41:20;;;;;;;0.8;0.7;;;;;;;24.64;32.52246;994.7511;;;;
2019/04/25 02:43:50;;;;;;;1.4;0.7;;;;;;;24.63;32.53418;994.8627;;;;
2019/04/25 02:49:31;;;;;;;0.6;0.6;;;;;;;24.62;32.5332;995.0291;;;;
2019/04/25 02:51:22;;;;;;;0.7;0.7;;;;;;;24.62;32.52051;995.0896;;;;
2019/04/25 02:53:50;;;;;;;0.7;0.5;;;;;;;24.61;32.52051;995.0818;;;;
2019/04/25 02:56:19;;;;;;;0.7;0.6;;;;;;;24.62;32.52051;995.0856;;;;
2019/04/25 02:58:52;;;;;;;0.7;0.7;;;;;;;24.61;32.52051;995.1971;;;;
2019/04/25 03:01:24;;;;;;;0.7;0.6;;;;;;;24.6;32.50879;995.2302;;;;
2019/04/25 03:03:53;;;;;;;0.8;0.6;;;;;;;24.6;32.51953;995.2497;;;;
2019/04/25 03:06:23;;;;;;;1.1;0.7;;;;;;;24.59;32.51855;995.1926;;;;
2019/04/25 03:08:47;;;;;;;0.7;0.7;;;;;;;24.59;32.51855;995.2201;;;;
2019/04/25 03:11:16;;;;;;;1.1;0.6;;;;;;;24.58;32.51855;995.1708;;;;
2019/04/25 03:13:44;;;;;;;0.5;0.5;;;;;;;24.58;32.50684;995.1256;;;;
2019/04/25 03:16:15;;;;;;;0.8;0.6;;;;;;;24.58;32.50684;995.0669;;;;
2019/04/25 03:21:46;;;;;;;0.7;0.6;;;;;;;24.57;32.48242;994.9861;;;;
2019/04/25 03:24:31;;;;;;;0.8;0.6;;;;;;;24.58;32.47168;994.9609;;;;
2019/04/25 03:27:02;;;;;;;0.7;0.6;;;;;;;24.6;32.47168;994.8931;;;;
2019/04/25 03:29:29;;;;;;;0.7;0.5;;;;;;;24.6;32.47266;994.8972;;;;
2019/04/25 03:32:01;;;;;;;1;0.6;;;;;;;24.6;32.47168;994.6736;;;;
2019/04/25 03:34:34;;;;;;;0.6;0.5;;;;;;;24.6;32.44922;994.7051;;;;
2019/04/25 03:37:06;;;;;;;0.7;0.6;;;;;;;24.61;32.44922;994.6895;;;;
2019/04/25 03:39:34;;;;;;;0.9;0.7;;;;;;;24.61;32.44922;994.5467;;;;
2019/04/25 03:42:01;;;;;;;0.7;0.6;;;;;;;24.61;32.4375;994.5112;;;;
2019/04/25 03:44:34;;;;;;;0.9;0.6;;;;;;;24.61;32.44922;994.4467;;;;
2019/04/25 03:47:05;;;;;;;0.7;0.5;;;;;;;24.61;32.47266;994.4152;;;;
2019/04/25 03:49:38;;;;;;;0.7;0.6;;;;;;;24.61;32.48535;994.3959;;;;
2019/04/25 03:52:11;;;;;;;1.4;0.5;;;;;;;24.62;32.47363;994.427;;;;
2019/04/25 03:54:37;;;;;;;0.8;0.6;;;;;;;24.62;32.47363;994.3997;;;;
2019/04/25 03:57:08;;;;;;;0.8;0.6;;;;;;;24.62;32.49707;994.4819;;;;
2019/04/25 03:59:41;;;;;;;1;0.5;;;;;;;24.61;32.50879;994.5387;;;;
2019/04/25 04:02:53;;;;;;;0.6;0.5;;;;;;;24.62;32.49805;994.5723;;;;
2019/04/25 04:05:21;;;;;;;0.6;0.5;;;;;;;24.62;32.49707;994.6821;;;;
2019/04/25 04:07:52;;;;;;;0.7;0.6;;;;;;;24.62;32.50977;994.7371;;;;
2019/04/25 04:10:21;;;;;;;0.6;0.6;;;;;;;24.62;32.52051;994.7603;;;;
2019/04/25 04:12:53;;;;;;;1.2;0.6;;;;;;;24.62;32.52148;994.892;;;;
2019/04/25 04:15:23;;;;;;;0.7;0.6;;;;;;;24.62;32.5332;995.0017;;;;
2019/04/25 04:18:02;;;;;;;1;0.7;;;;;;;24.63;32.5459;995.1508;;;;
2019/04/25 04:20:31;;;;;;;1;0.5;;;;;;;24.62;32.54492;995.2623;;;;
2019/04/25 04:22:57;;;;;;;0.8;0.6;;;;;;;24.62;32.54492;995.4011;;;;
2019/04/25 04:25:20;;;;;;;0.8;0.6;;;;;;;24.61;32.56738;995.5949;;;;
2019/04/25 04:27:48;;;;;;;0.9;0.6;;;;;;;24.6;32.59082;995.6417;;;;
2019/04/25 04:30:18;;;;;;;1.7;0.7;;;;;;;24.6;32.59082;995.7614;;;;
2019/04/25 04:32:52;;;;;;;1.3;0.5;;;;;;;24.61;32.59082;995.8047;;;;
2019/04/25 04:35:23;;;;;;;1.3;0.6;;;;;;;24.62;32.55664;995.7836;;;;
2019/04/25 04:37:52;;;;;;;1.5;0.7;;;;;;;24.63;32.54492;995.7874;;;;
2019/04/25 04:40:17;;;;;;;0.7;0.6;;;;;;;24.64;32.52246;995.8036;;;;
2019/04/25 04:42:46;;;;;;;1.1;0.6;;;;;;;24.64;32.51074;995.8116;;;;
2019/04/25 04:45:15;;;;;;;1.1;0.8;;;;;;;24.64;32.49902;995.6921;;;;
2019/04/25 04:47:45;;;;;;;1.1;0.6;;;;;;;24.65;32.47559;995.8334;;;;
2019/04/25 04:50:15;;;;;;;1.9;0.6;;;;;;;24.65;32.46387;995.7922;;;;
2019/04/25 04:52:48;;;;;;;0.9;0.6;;;;;;;24.65;32.46387;995.7685;;;;
2019/04/25 04:55:18;;;;;;;0.9;0.5;;;;;;;24.65;32.44043;995.704;;;;
2019/04/25 04:57:48;;;;;;;1.2;0.6;;;;;;;24.65;32.41699;995.5804;;;;
2019/04/25 05:00:26;;;;;;;0.7;0.5;;;;;;;24.65;32.40527;995.5023;;;;
2019/04/25 05:04:03;;;;;;;0.9;0.6;;;;;;;24.66;32.39355;995.4144;;;;
2019/04/25 05:08:06;;;;;;;0.6;0.6;;;;;;;24.67;32.34668;995.2617;;;;
2019/04/25 05:10:30;;;;;;;0.6;0.5;;;;;;;24.66;32.34668;995.2123;;;;
2019/04/25 05:13:08;;;;;;;0.9;0.5;;;;;;;24.66;32.34668;995.1537;;;;
2019/04/25 05:15:45;;;;;;;0.9;0.5;;;;;;;24.66;32.33398;995.0536;;;;
2019/04/25 05:18:12;;;;;;;0.8;0.6;;;;;;;24.67;32.31055;995.1108;;;;
2019/04/25 05:20:41;;;;;;;0.7;0.6;;;;;;;24.67;32.27539;995.0325;;;;
2019/04/25 05:23:08;;;;;;;1.2;0.7;;;;;;;24.66;32.23926;994.9009;;;;
2019/04/25 05:25:34;;;;;;;0.6;0.6;;;;;;;24.68;32.19336;994.8524;;;;
2019/04/25 05:28:14;;;;;;;0.6;0.6;;;;;;;24.69;32.1709;994.7997;;;;
2019/04/25 05:30:52;;;;;;;0.7;0.7;;;;;;;24.73;32.10156;994.7541;;;;
2019/04/25 05:33:18;;;;;;;1;0.7;;;;;;;24.77;32.03418;994.7355;;;;
2019/04/25 05:35:49;;;;;;;0.7;0.6;;;;;;;24.82;31.94336;994.7606;;;;
2019/04/25 05:38:18;;;;;;;1;0.7;;;;;;;24.86;31.85059;994.8931;;;;
2019/04/25 05:40:55;;;;;;;0.8;0.7;;;;;;;24.92;31.72461;994.9379;;;;
2019/04/25 05:43:21;;;;;;;0.6;0.6;;;;;;;24.97;31.57422;994.9671;;;;
2019/04/25 05:45:51;;;;;;;0.6;0.6;;;;;;;25.03;31.45996;995.0119;;;;
2019/04/25 05:48:17;;;;;;;0.8;0.7;;;;;;;25.07;31.34375;994.925;;;;
2019/04/25 05:50:42;;;;;;;0.9;0.8;;;;;;;25.11;31.26367;994.9985;;;;
2019/04/25 05:53:19;;;;;;;0.8;0.7;;;;;;;25.15;31.19531;995.0804;;;;
2019/04/25 05:55:45;;;;;;;1.8;0.8;;;;;;;25.2;31.08008;995.1011;;;;
2019/04/25 05:58:19;;;;;;;1.3;0.7;;;;;;;25.24;31;995.1381;;;;
2019/04/25 06:00:48;;;;;;;0.9;0.7;;;;;;;25.29;30.91895;995.1825;;;;
2019/04/25 06:03:14;;;;;;;1.6;0.8;;;;;;;25.33;30.81641;995.1995;;;;
2019/04/25 06:05:47;;;;;;;1.3;0.8;;;;;;;25.4;30.65527;995.1603;;;;
2019/04/25 06:08:38;;;;;;;1.3;0.9;;;;;;;25.45;30.50391;995.2304;;;;
2019/04/25 06:11:12;;;;;;;2.4;0.9;;;;;;;25.5;30.34082;995.2377;;;;
2019/04/25 06:13:39;;;;;;;1.4;0.9;;;;;;;25.54;30.2959;995.274;;;;
2019/04/25 06:16:23;;;;;;;1.6;0.9;;;;;;;25.58;30.21582;995.2459;;;;
2019/04/25 06:19:36;;;;;;;1.2;0.8;;;;;;;25.63;30.06445;995.2529;;;;
2019/04/25 06:21:01;;;;;;;1.8;1;;;;;;;25.7;29.9502;995.2333;;;;
2019/04/25 06:23:49;;;;;;;4.2;1;;;;;;;25.73;29.89258;995.3714;;;;
2019/04/25 06:26:00;;;;;;;1.8;1;;;;;;;25.8;29.79102;995.4283;;;;
2019/04/25 06:28:30;;;;;;;1.2;1;;;;;;;25.89;29.63086;995.3469;;;;
2019/04/25 06:31:02;;;;;;;1.9;1.1;;;;;;;25.97;29.50488;995.2975;;;;
2019/04/25 06:33:29;;;;;;;2.4;1;;;;;;;26.03;29.41406;995.2601;;;;
2019/04/25 06:36:06;;;;;;;1.1;0.8;;;;;;;26.06;29.36816;995.1881;;;;
2019/04/25 06:38:38;;;;;;;1.2;0.8;;;;;;;26.09;29.32227;995.1809;;;;
2019/04/25 06:41:09;;;;;;;1.3;1;;;;;;;26.14;29.21875;995.2747;;;;
2019/04/25 06:43:45;;;;;;;1.5;1;;;;;;;26.16;29.21973;995.2712;;;;
2019/04/25 06:46:43;;;;;;;1.1;0.9;;;;;;;26.21;29.05664;995.1859;;;;
2019/04/25 06:48:49;;;;;;;3.1;1.8;;;;;;;25.63;28.74609;995.1746;;;;
2019/04/25 06:51:18;;;;;;;2.6;1.8;;;;;;;24.37;29.90918;995.2243;;;;
2019/04/25 06:53:48;;;;;;;3.1;1.5;;;;;;;23.81;31.13672;995.1642;;;;
2019/04/25 06:56:19;;;;;;;3.4;1.8;;;;;;;24.04;31.29492;995.1861;;;;
2019/04/25 06:58:50;;;;;;;4.4;1.6;;;;;;;24.6;30.1377;995.0399;;;;
2019/04/25 07:01:22;;;;;;;2.8;1.3;;;;;;;24.77;30.16113;995.0374;;;;
2019/04/25 07:03:53;;;;;;;3.3;1.2;;;;;;;24.91;30.09961;994.9672;;;;
2019/04/25 07:06:19;;;;;;;2.7;1.3;;;;;;;24.35;30.33398;994.8303;;;;
2019/04/25 07:08:53;;;;;;;3.3;1.1;;;;;;;24.96;30.10254;994.8469;;;;
2019/04/25 07:11:24;;;;;;;3.7;1.4;;;;;;;25.43;29.55273;994.9375;;;;
2019/04/25 07:13:55;;;;;;;3.3;1.7;;;;;;;26.44;28.12012;994.8222;;;;
2019/04/25 07:16:25;;;;;;;3.1;1.5;;;;;;;28.62;24.83691;994.8153;;;;
2019/04/25 07:18:55;;;;;;;3.7;1.4;;;;;;;26.75;27.24609;994.8219;;;;
2019/04/25 07:21:28;;;;;;;3.4;1.5;;;;;;;26.66;27.87109;994.7665;;;;
2019/04/25 07:23:57;;;;;;;3.3;1.3;;;;;;;28.01;25.31641;994.7228;;;;
2019/04/25 07:29:17;;;;;;;3;1.1;;;;;;;25.61;29.19629;994.6067;;;;
2019/04/25 07:33:54;;;;;;;2.8;1.1;;;;;;;24.25;30.16113;994.6035;;;;
2019/04/25 07:36:21;;;;;;;4.5;1.1;;;;;;;23.76;30.44727;994.6497;;;;
2019/04/25 07:38:54;;;;;;;3;0.7;;;;;;;23.54;30.27832;994.7007;;;;
2019/04/25 07:41:22;;;;;;;3.4;0.9;;;;;;;23.81;30.06055;994.6299;;;;
2019/04/25 07:44:00;;;;;;;2.6;1.1;;;;;;;22.97;31.44434;994.5645;;;;
2019/04/25 07:46:32;;;;;;;3.7;1;;;;;;;23.43;30.82617;994.6029;;;;
2019/04/25 07:49:01;;;;;;;3.7;0.9;;;;;;;23.47;30.9248;994.7063;;;;
2019/04/25 07:51:33;;;;;;;2.4;0.6;;;;;;;27.03;25.70215;994.6901;;;;
2019/04/25 07:54:03;;;;;;;2.3;0.8;;;;;;;30.15;22.16113;994.7389;;;;
2019/04/25 07:56:35;;;;;;;1.7;0.8;;;;;;;34.31;17.38867;994.7805;;;;
2019/04/25 07:59:04;;;;;;;3.7;0.7;;;;;;;36.34;15.68945;994.9005;;;;
2019/04/25 08:01:40;;;;;;;2.9;0.8;;;;;;;37.43;14.39844;994.9194;;;;
2019/04/25 08:04:07;;;;;;;3.7;0.9;;;;;;;38.16;13.83496;994.8847;;;;
2019/04/25 08:06:38;;;;;;;1.3;0.8;;;;;;;38.55;13.41895;994.7704;;;;
2019/04/25 08:09:09;;;;;;;3.1;1;;;;;;;39.65;12.74023;994.8169;;;;
2019/04/25 08:11:38;;;;;;;1.4;0.9;;;;;;;39.99;12.50488;994.6917;;;;
2019/04/25 08:14:10;;;;;;;2.2;0.7;;;;;;;40.27;12.36523;994.6848;;;;
2019/04/25 08:16:34;;;;;;;1.9;0.8;;;;;;;40.82;11.79004;994.7378;;;;
2019/04/25 08:19:06;;;;;;;1.9;0.8;;;;;;;40.92;11.79297;994.688;;;;
2019/04/25 08:21:36;;;;;;;1.6;0.7;;;;;;;40.68;12.00781;994.7367;;;;
2019/04/25 08:24:07;;;;;;;2.5;0.8;;;;;;;41.25;11.69043;994.7239;;;;
2019/04/25 08:26:37;;;;;;;2.4;0.8;;;;;;;41.14;11.63867;994.7137;;;;
2019/04/25 08:29:07;;;;;;;3.9;0.8;;;;;;;36.77;15.12012;994.5908;;;;
2019/04/25 08:31:39;;;;;;;3.4;0.9;;;;;;;36.11;15.81641;994.6042;;;;
2019/04/25 08:34:11;;;;;;;3.4;1;;;;;;;38.58;13.76172;994.5831;;;;
2019/04/25 08:36:42;;;;;;;2.6;0.9;;;;;;;39.43;13.08887;994.6172;;;;
2019/04/25 08:39:11;;;;;;;3;1;;;;;;;38.97;13.43066;994.6428;;;;
2019/04/25 08:41:39;;;;;;;2.6;0.9;;;;;;;39.32;13.18457;994.757;;;;
2019/04/25 08:44:10;;;;;;;2.4;0.9;;;;;;;39.85;12.74609;994.7587;;;;
2019/04/25 08:46:36;;;;;;;1.5;1;;;;;;;38.23;14.05664;994.7106;;;;
2019/04/25 08:49:22;;;;;;;1.8;0.8;;;;;;;35.96;16.04102;994.6609;;;;
2019/04/25 08:51:37;;;;;;;1.8;0.8;;;;;;;36.89;15.18555;994.6203;;;;
2019/04/25 08:54:16;;;;;;;2.5;1;;;;;;;35.1;16.95801;994.6228;;;;
2019/04/25 08:56:42;;;;;;;1.7;0.9;;;;;;;34.83;17.15332;994.6064;;;;
2019/04/25 09:04:37;;;;;;;2;1;;;;;;;31.57;20.84668;994.5011;;;;
2019/04/25 09:06:45;;;;;;;3.1;0.9;;;;;;;31.29;21.21875;994.4903;;;;
2019/04/25 09:09:14;;;;;;;3.9;0.9;;;;;;;30.94;21.68359;994.3839;;;;
2019/04/25 09:11:44;;;;;;;3.2;1;;;;;;;30.5;22.28711;994.3261;;;;
2019/04/25 09:14:15;;;;;;;2.8;0.8;;;;;;;30.25;22.64551;994.2213;;;;
2019/04/25 09:16:45;;;;;;;2.2;0.8;;;;;;;30.14;22.78418;994.2266;;;;
2019/04/25 09:19:17;;;;;;;2.2;0.9;;;;;;;29.62;23.52539;994.1826;;;;
2019/04/25 09:21:48;;;;;;;3.2;1;;;;;;;29.6;23.7041;994.1289;;;;
2019/04/25 09:24:20;;;;;;;3.1;1.1;;;;;;;29.48;23.88965;994.0742;;;;
2019/04/25 09:26:50;;;;;;;1.4;0.9;;;;;;;29.33;24.12109;994.0864;;;;
2019/04/25 09:29:22;;;;;;;5.4;1.1;;;;;;;29.2;24.15039;993.9389;;;;
2019/04/25 09:31:50;;;;;;;2.3;1;;;;;;;29.15;24.30273;993.8792;;;;
2019/04/25 09:34:21;;;;;;;1.5;0.9;;;;;;;29.04;24.44043;993.801;;;;
2019/04/25 09:36:46;;;;;;;2.3;0.9;;;;;;;28.98;24.5332;993.7787;;;;
2019/04/25 09:39:25;;;;;;;2.1;0.9;;;;;;;28.83;24.72852;993.6543;;;;
2019/04/25 09:41:41;;;;;;;3;0.9;;;;;;;28.77;24.82031;993.5884;;;;
2019/04/25 09:44:22;;;;;;;2.4;1.2;;;;;;;28.66;24.91016;993.5005;;;;
2019/04/25 09:46:50;;;;;;;2.4;0.7;;;;;;;28.45;25.14941;993.4919;;;;
2019/04/25 09:49:22;;;;;;;2.9;0.8;;;;;;;28.23;25.63867;993.4235;;;;
2019/04/25 09:52:15;;;;;;;1.9;0.8;;;;;;;28.09;25.84668;993.4056;;;;
2019/04/25 09:54:39;;;;;;;3.5;1.1;;;;;;;28.12;25.96777;993.2701;;;;
2019/04/25 09:56:59;;;;;;;3.3;0.9;;;;;;;28.12;25.88477;993.1599;;;;
2019/04/25 09:59:26;;;;;;;1.8;0.8;;;;;;;28.12;25.75195;993.0455;;;;
2019/04/25 10:02:00;;;;;;;2.9;0.8;;;;;;;28.08;25.94141;993.1967;;;;
2019/04/25 10:04:25;;;;;;;4.2;0.9;;;;;;;27.98;26.18555;993.274;;;;
2019/04/25 10:06:59;;;;;;;3.2;1;;;;;;;27.8;26.52246;993.1926;;;;
2019/04/25 10:09:30;;;;;;;3.4;1.1;;;;;;;27.64;26.69141;993.2015;;;;
2019/04/25 10:11:56;;;;;;;3;0.9;;;;;;;27.56;26.62695;993.155;;;;
2019/04/25 10:16:48;;;;;;;3.1;0.9;;;;;;;27.59;26.7002;993.0295;;;;
2019/04/25 10:19:19;;;;;;;2.3;0.9;;;;;;;27.65;26.7041;993.0009;;;;
2019/04/25 10:21:47;;;;;;;3.4;0.9;;;;;;;27.73;26.4707;992.9587;;;;
2019/04/25 10:24:18;;;;;;;2.8;1;;;;;;;27.68;26.72949;992.9208;;;;
2019/04/25 10:26:50;;;;;;;3.3;1.3;;;;;;;27.67;26.64551;992.7845;;;;
2019/04/25 10:29:21;;;;;;;3.7;1.2;;;;;;;27.71;26.55273;992.7596;;;;
2019/04/25 10:31:55;;;;;;;3.4;1;;;;;;;27.69;26.62305;992.7238;;;;
2019/04/25 10:34:22;;;;;;;3.6;1.3;;;;;;;27.67;26.65723;992.7156;;;;
2019/04/25 10:36:53;;;;;;;3.5;1.3;;;;;;;27.64;26.69141;992.6896;;;;
2019/04/25 10:39:24;;;;;;;1.9;1.2;;;;;;;27.66;26.69238;992.6544;;;;
2019/04/25 10:41:51;;;;;;;4.3;1.3;;;;;;;27.61;26.77344;992.6144;;;;
2019/04/25 10:44:22;;;;;;;3.5;1.1;;;;;;;27.61;26.7373;992.575;;;;
2019/04/25 10:46:52;;;;;;;1.8;1.1;;;;;;;27.59;26.81934;992.5924;;;;
2019/04/25 10:49:23;;;;;;;2.9;1.2;;;;;;;27.58;26.7832;992.4444;;;;
2019/04/25 10:51:55;;;;;;;3.1;1.1;;;;;;;27.54;26.87695;992.3437;;;;
2019/04/25 10:54:22;;;;;;;1.7;1.2;;;;;;;27.52;26.80371;992.3176;;;;
2019/04/25 10:56:50;;;;;;;2;1.2;;;;;;;27.49;26.96875;992.3389;;;;
2019/04/25 10:59:26;;;;;;;4.6;1.2;;;;;;;27.41;27.04688;992.2706;;;;
2019/04/25 11:02:17;;;;;;;4.3;1;;;;;;;27.37;27.08105;992.2169;;;;
2019/04/25 11:04:47;;;;;;;3;1.2;;;;;;;27.31;27.07715;992.2809;;;;
2019/04/25 11:07:14;;;;;;;4.2;1.3;;;;;;;27.31;27.1123;992.3283;;;;
2019/04/25 11:09:41;;;;;;;2.9;1.4;;;;;;;27.3;27.00488;992.3299;;;;
2019/04/25 11:12:22;;;;;;;5.3;1.5;;;;;;;27.31;27.0293;992.3183;;;;
2019/04/25 11:14:57;;;;;;;4.2;1.4;;;;;;;27.28;26.96875;992.2472;;;;
2019/04/25 11:17:24;;;;;;;3.3;1.4;;;;;;;27.3;26.89844;992.2141;;;;
2019/04/25 11:19:54;;;;;;;2.8;1.2;;;;;;;27.28;26.84863;992.2115;;;;
2019/04/25 11:22:36;;;;;;;2.2;1.1;;;;;;;27.26;26.95508;992.1108;;;;
2019/04/25 11:25:02;;;;;;;3;1.3;;;;;;;27.18;26.96289;992.1433;;;;
2019/04/25 11:27:35;;;;;;;3.3;1.2;;;;;;;27.12;27.01855;992.1674;;;;
2019/04/25 11:30:05;;;;;;;3.8;1.1;;;;;;;27.08;27.07617;992.1255;;;;
2019/04/25 11:32:36;;;;;;;2.3;1.3;;;;;;;27.03;27.1084;992.0461;;;;
2019/04/25 11:35:03;;;;;;;1.8;1;;;;;;;26.98;27.15332;992.0353;;;;
2019/04/25 11:37:34;;;;;;;2.8;1.3;;;;;;;27;26.97559;991.9669;;;;
2019/04/25 11:40:07;;;;;;;3.6;1.2;;;;;;;26.95;27.12695;991.9755;;;;
2019/04/25 11:42:27;;;;;;;2.7;0.9;;;;;;;26.89;27.1709;991.9256;;;;
2019/04/25 11:45:00;;;;;;;3;1;;;;;;;26.87;27.2168;991.945;;;;
2019/04/25 11:47:27;;;;;;;2.6;1;;;;;;;26.84;27.19141;991.9011;;;;
2019/04/25 11:49:53;;;;;;;1.6;1;;;;;;;26.84;27.08496;991.8128;;;;
2019/04/25 11:52:27;;;;;;;3.1;1;;;;;;;26.82;27.19043;991.7868;;;;
2019/04/25 11:54:57;;;;;;;3.2;1;;;;;;;26.84;27.42969;991.736;;;;
2019/04/25 11:57:23;;;;;;;3.7;0.9;;;;;;;26.86;27.39551;991.6989;;;;
2019/04/25 12:00:03;;;;;;;3.4;1;;;;;;;26.88;27.31348;991.6755;;;;
2019/04/25 12:02:28;;;;;;;2.9;1.1;;;;;;;26.83;27.65625;991.5352;;;;
2019/04/25 12:05:10;;;;;;;3.9;0.8;;;;;;;26.86;27.53906;991.528;;;;
2019/04/25 12:07:36;;;;;;;4.7;1.1;;;;;;;26.9;27.38574;991.5245;;;;
2019/04/25 12:10:09;;;;;;;3.7;1.1;;;;;;;26.89;27.57617;991.4654;;;;
2019/04/25 12:12:39;;;;;;;5.4;1.1;;;;;;;26.91;27.54102;991.3476;;;;
2019/04/25 12:15:12;;;;;;;3.7;1.2;;;;;;;26.86;27.77734;991.3449;;;;
2019/04/25 12:17:44;;;;;;;3.6;1;;;;;;;26.86;27.8125;991.1838;;;;
2019/04/25 12:20:16;;;;;;;4.8;1.1;;;;;;;26.92;27.78125;991.1412;;;;
2019/04/25 12:22:42;;;;;;;3.3;1.1;;;;;;;26.97;27.7002;991.207;;;;
2019/04/25 12:25:16;;;;;;;3.8;1.1;;;;;;;26.96;27.7832;991.2147;;;;
2019/04/25 12:27:44;;;;;;;3.5;0.9;;;;;;;26.96;27.71191;991.1872;;;;
2019/04/25 12:30:21;;;;;;;3.3;1.1;;;;;;;26.96;27.42578;991.1872;;;;
2019/04/25 12:32:48;;;;;;;5;1.2;;;;;;;26.93;27.93652;991.0708;;;;
2019/04/25 12:35:15;;;;;;;3.7;1;;;;;;;26.84;27.66797;991.0161;;;;
2019/04/25 12:37:47;;;;;;;2.2;0.9;;;;;;;26.9;27.81445;991.0564;;;;
2019/04/25 12:40:17;;;;;;;1.8;1.1;;;;;;;26.94;27.75781;990.9667;;;;
2019/04/25 12:42:51;;;;;;;2.5;1;;;;;;;26.95;27.58008;990.8781;;;;
2019/04/25 12:47:55;;;;;;;2.5;1;;;;;;;26.93;27.25684;990.8052;;;;
2019/04/25 12:50:32;;;;;;;1.5;0.9;;;;;;;26.9;27.45703;990.8223;;;;
2019/04/25 12:53:08;;;;;;;1.9;0.8;;;;;;;26.91;25.40918;990.8088;;;;
2019/04/25 12:55:40;;;;;;;1.4;0.9;;;;;;;26.85;25.42969;990.8392;;;;
2019/04/25 12:58:10;;;;;;;4.6;0.9;;;;;;;26.89;25.47949;990.7693;;;;
2019/04/25 13:00:40;;;;;;;2.6;0.8;;;;;;;26.86;24.15625;990.7449;;;;
2019/04/25 13:03:08;;;;;;;3.5;0.8;;;;;;;26.87;23.94141;990.7964;;;;
2019/04/25 13:05:39;;;;;;;2.1;0.9;;;;;;;26.9;23.60938;990.7673;;;;
2019/04/25 13:08:19;;;;;;;2.3;0.7;;;;;;;26.88;23.4668;990.6786;;;;
2019/04/25 13:10:46;;;;;;;1.3;0.7;;;;;;;26.86;23.45313;990.5425;;;;
2019/04/25 13:13:15;;;;;;;3.8;0.8;;;;;;;26.86;23.41699;990.6072;;;;
2019/04/25 13:15:47;;;;;;;2.3;0.8;;;;;;;26.86;23.04785;990.6194;;;;
2019/04/25 13:18:18;;;;;;;2.1;0.7;;;;;;;26.86;22.94043;990.5781;;;;
2019/04/25 13:20:52;;;;;;;3.4;1.1;;;;;;;26.89;23.0498;990.5527;;;;
2019/04/25 13:23:20;;;;;;;2.3;0.8;;;;;;;26.89;23.19238;990.543;;;;
2019/04/25 13:26:09;;;;;;;2.2;0.7;;;;;;;26.86;23.71484;990.4695;;;;
2019/04/25 13:29:13;;;;;;;1.9;0.6;;;;;;;26.85;23.34473;990.45;;;;
2019/04/25 13:31:43;;;;;;;2.8;0.6;;;;;;;26.85;23.35742;990.4165;;;;
2019/04/25 13:34:07;;;;;;;2.4;0.8;;;;;;;26.79;23.37793;990.3979;;;;
2019/04/25 13:36:35;;;;;;;2.2;0.6;;;;;;;26.79;23.18652;990.3311;;;;
2019/04/25 13:39:14;;;;;;;1.6;0.7;;;;;;;26.76;23.2334;990.3739;;;;
2019/04/25 13:41:42;;;;;;;1.7;0.6;;;;;;;26.79;23.36523;990.3036;;;;
2019/04/25 13:44:17;;;;;;;3.2;0.7;;;;;;;26.81;22.14063;990.2371;;;;
2019/04/25 13:46:45;;;;;;;2.3;0.6;;;;;;;26.74;23.19629;990.2654;;;;
2019/04/25 13:49:14;;;;;;;2.5;0.5;;;;;;;26.73;22.89844;990.1945;;;;
2019/04/25 13:51:50;;;;;;;2.5;0.6;;;;;;;26.74;22.93457;990.2184;;;;
2019/04/25 13:54:21;;;;;;;3.4;0.7;;;;;;;26.75;22.68457;990.1436;;;;
2019/04/25 13:56:53;;;;;;;2.2;0.7;;;;;;;26.7;23.02832;990.1038;;;;
2019/04/25 13:59:22;;;;;;;2.7;0.7;;;;;;;26.71;23.14746;990.1431;;;;
2019/04/25 14:01:56;;;;;;;0.9;0.6;;;;;;;26.74;22.76758;990.0492;;;;
2019/04/25 14:04:26;;;;;;;2.7;0.8;;;;;;;26.75;22.82813;990.0278;;;;
2019/04/25 14:06:57;;;;;;;2.8;0.7;;;;;;;26.72;22.73145;990.0823;;;;
2019/04/25 14:09:36;;;;;;;0.8;0.5;;;;;;;26.76;22.61426;989.9295;;;;
2019/04/25 14:12:07;;;;;;;1.1;0.6;;;;;;;26.74;22.41016;990.0355;;;;
2019/04/25 14:14:33;;;;;;;2.4;0.7;;;;;;;26.74;21.6123;990.0176;;;;
2019/04/25 14:19:42;;;;;;;2.3;0.7;;;;;;;26.76;21.70898;989.8962;;;;
2019/04/25 14:21:50;;;;;;;1.8;0.7;;;;;;;26.74;21.68359;989.8113;;;;
2019/04/25 14:24:20;;;;;;;2;0.7;;;;;;;26.75;21.73242;989.8214;;;;
2019/04/25 14:26:51;;;;;;;3.1;0.9;;;;;;;26.76;21.64941;989.8784;;;;
2019/04/25 14:29:24;;;;;;;2.4;0.7;;;;;;;26.76;21.76855;989.7781;;;;
2019/04/25 14:31:52;;;;;;;2.2;0.7;;;;;;;26.76;21.7207;989.7466;;;;
2019/04/25 14:34:24;;;;;;;2.7;0.7;;;;;;;26.74;21.70801;989.7642;;;;
2019/04/25 14:36:54;;;;;;;3.6;0.8;;;;;;;26.74;21.66113;989.6541;;;;
2019/04/25 14:39:22;;;;;;;2.5;0.7;;;;;;;26.71;21.56445;989.6655;;;;
2019/04/25 14:41:52;;;;;;;1.9;0.6;;;;;;;26.72;22.19531;989.6675;;;;
2019/04/25 14:44:24;;;;;;;2.3;0.9;;;;;;;26.73;22.375;989.7169;;;;
2019/04/25 14:46:58;;;;;;;2.6;0.7;;;;;;;26.77;22.47168;989.7113;;;;
2019/04/25 14:49:25;;;;;;;1.4;0.8;;;;;;;26.77;22.47168;989.6936;;;;
2019/04/25 14:51:58;;;;;;;1.4;0.7;;;;;;;26.8;22.60449;989.6707;;;;
2019/04/25 14:54:42;;;;;;;1.6;0.7;;;;;;;26.76;21.95898;989.7328;;;;
2019/04/25 14:57:17;;;;;;;1;0.6;;;;;;;26.75;22.2207;989.6838;;;;
2019/04/25 14:59:35;;;;;;;1.4;0.7;;;;;;;26.75;22.56641;989.6424;;;;
2019/04/25 15:02:01;;;;;;;2.5;0.6;;;;;;;26.74;22.20801;989.6578;;;;
2019/04/25 15:04:32;;;;;;;1.7;0.6;;;;;;;26.76;22.11328;989.6817;;;;
2019/04/25 15:07:05;;;;;;;2.5;0.6;;;;;;;26.76;22.03027;989.6898;;;;
2019/04/25 15:09:38;;;;;;;3.3;0.8;;;;;;;26.73;22.32715;989.697;;;;
2019/04/25 15:12:12;;;;;;;3;0.6;;;;;;;26.72;22.38574;989.746;;;;
2019/04/25 15:14:39;;;;;;;3.3;1;;;;;;;26.74;23.70801;989.6501;;;;
2019/04/25 15:17:13;;;;;;;1.3;0.6;;;;;;;26.73;22.88672;989.6302;;;;